createdAt,value
2019-05-05T00:00:08.590Z,85.42
2019-05-05T00:00:55.038Z,85.08
2019-05-05T00:01:51.705Z,84.89
2019-05-05T00:02:40.671Z,84.82
2019-05-05T00:03:27.186Z,84.72
2019-05-05T00:04:25.221Z,84.61
2019-05-05T00:05:17.075Z,84.64
2019-05-05T00:05:54.760Z,84.98
2019-05-05T00:06:30.874Z,85.18
2019-05-05T00:07:07.012Z,85.47
2019-05-05T00:07:44.843Z,85.63
2019-05-05T00:08:21.582Z,85.88
2019-05-05T00:08:57.422Z,86.03
2019-05-05T00:09:34.739Z,86.29
2019-05-05T00:10:15.121Z,86.53
2019-05-05T00:10:59.390Z,86.57
2019-05-05T00:11:44.484Z,86.55
2019-05-05T00:12:47.323Z,86.55
2019-05-05T00:13:34.674Z,86.66
2019-05-05T00:14:16.670Z,86.90
2019-05-05T00:15:11.400Z,87.04
2019-05-05T00:16:06.278Z,87.09
2019-05-05T00:16:51.060Z,87.15
2019-05-05T00:17:27.457Z,87.21
2019-05-05T00:18:05.267Z,87.08
2019-05-05T00:18:41.248Z,86.96
2019-05-05T00:19:29.724Z,86.99
2019-05-05T00:19:55.019Z,87.05
2019-05-05T00:20:31.000Z,87.07
2019-05-05T00:21:07.051Z,87.03
2019-05-05T00:21:44.572Z,86.95
2019-05-05T00:22:20.725Z,86.91
2019-05-05T00:22:56.582Z,86.86
2019-05-05T00:23:34.566Z,86.83
2019-05-05T00:24:10.316Z,86.85
2019-05-05T00:24:46.295Z,86.88
2019-05-05T00:25:22.128Z,86.93
2019-05-05T00:25:57.999Z,86.97
2019-05-05T00:26:34.859Z,86.99
2019-05-05T00:27:11.186Z,87.08
2019-05-05T00:27:46.980Z,87.13
2019-05-05T00:28:24.855Z,87.21
2019-05-05T00:29:00.618Z,87.26
2019-05-05T00:29:36.499Z,87.13
2019-05-05T00:30:14.305Z,87.02
2019-05-05T00:30:50.167Z,86.91
2019-05-05T00:31:26.210Z,86.90
2019-05-05T00:32:02.059Z,86.85
2019-05-05T00:32:38.263Z,86.75
2019-05-05T00:33:14.574Z,86.76
2019-05-05T00:33:50.933Z,86.93
2019-05-05T00:34:26.856Z,86.89
2019-05-05T00:35:04.343Z,86.81
2019-05-05T00:35:40.323Z,86.89
2019-05-05T00:36:16.202Z,86.81
2019-05-05T00:36:52.124Z,86.73
2019-05-05T00:37:28.003Z,86.73
2019-05-05T00:38:05.111Z,86.66
2019-05-05T00:38:41.436Z,86.51
2019-05-05T00:39:17.531Z,86.50
2019-05-05T00:39:54.319Z,86.52
2019-05-05T00:40:30.332Z,86.53
2019-05-05T00:41:06.260Z,86.08
2019-05-05T00:41:42.069Z,86.12
2019-05-05T00:42:17.925Z,86.17
2019-05-05T00:42:54.734Z,86.09
2019-05-05T00:43:30.892Z,86.07
2019-05-05T00:44:06.742Z,85.97
2019-05-05T00:44:44.500Z,85.84
2019-05-05T00:45:20.304Z,85.91
2019-05-05T00:46:01.278Z,85.89
2019-05-05T00:47:05.298Z,85.84
2019-05-05T00:47:46.466Z,85.80
2019-05-05T00:48:29.630Z,85.83
2019-05-05T00:49:05.494Z,85.82
2019-05-05T00:49:46.444Z,85.87
2019-05-05T00:50:21.293Z,85.94
2019-05-05T00:50:57.263Z,86.03
2019-05-05T00:51:34.803Z,86.07
2019-05-05T00:52:11.135Z,86.12
2019-05-05T00:52:47.151Z,86.15
2019-05-05T00:53:24.996Z,86.16
2019-05-05T00:54:00.820Z,86.06
2019-05-05T00:54:36.721Z,85.96
2019-05-05T00:55:12.584Z,86.00
2019-05-05T00:55:49.140Z,85.93
2019-05-05T00:56:26.000Z,85.88
2019-05-05T00:57:01.881Z,85.87
2019-05-05T00:57:37.879Z,85.79
2019-05-05T00:58:14.374Z,85.66
2019-05-05T00:58:55.783Z,85.68
2019-05-05T00:59:31.652Z,85.67
2019-05-05T01:00:15.220Z,85.64
2019-05-05T01:00:57.061Z,85.63
2019-05-05T01:02:04.628Z,85.53
2019-05-05T01:02:44.899Z,85.44
2019-05-05T01:03:24.292Z,85.42
2019-05-05T01:04:25.834Z,85.28
2019-05-05T01:05:19.373Z,85.18
2019-05-05T01:06:08.218Z,84.98
2019-05-05T01:06:45.388Z,84.89
2019-05-05T01:07:21.665Z,84.92
2019-05-05T01:07:58.636Z,84.99
2019-05-05T01:08:35.232Z,85.05
2019-05-05T01:09:15.625Z,85.04
2019-05-05T01:09:51.702Z,85.00
2019-05-05T01:10:28.431Z,85.02
2019-05-05T01:11:04.544Z,85.03
2019-05-05T01:11:41.036Z,85.05
2019-05-05T01:12:21.346Z,85.01
2019-05-05T01:12:58.286Z,84.97
2019-05-05T01:13:35.869Z,85.00
2019-05-05T01:14:14.330Z,84.95
2019-05-05T01:14:50.633Z,84.94
2019-05-05T01:15:26.710Z,84.95
2019-05-05T01:16:04.804Z,84.97
2019-05-05T01:16:45.609Z,85.01
2019-05-05T01:17:21.928Z,85.01
2019-05-05T01:18:04.695Z,85.00
2019-05-05T01:18:40.941Z,84.96
2019-05-05T01:19:19.722Z,84.89
2019-05-05T01:20:16.424Z,85.01
2019-05-05T01:20:55.214Z,85.04
2019-05-05T01:21:39.597Z,84.95
2019-05-05T01:22:15.614Z,84.87
2019-05-05T01:22:55.435Z,84.78
2019-05-05T01:23:39.685Z,84.71
2019-05-05T01:24:16.350Z,84.62
2019-05-05T01:24:52.562Z,84.52
2019-05-05T01:25:29.286Z,84.56
2019-05-05T01:26:05.312Z,84.53
2019-05-05T01:26:42.211Z,84.48
2019-05-05T01:27:19.021Z,84.44
2019-05-05T01:27:55.046Z,84.31
2019-05-05T01:28:31.883Z,84.26
2019-05-05T01:29:14.704Z,84.24
2019-05-05T01:29:54.602Z,84.29
2019-05-05T01:30:34.988Z,84.38
2019-05-05T01:31:14.747Z,84.48
2019-05-05T01:31:54.448Z,84.54
2019-05-05T01:32:37.259Z,84.64
2019-05-05T01:33:21.123Z,84.74
2019-05-05T01:34:18.801Z,84.85
2019-05-05T01:34:55.790Z,84.92
2019-05-05T01:35:34.217Z,85.02
2019-05-05T01:36:14.905Z,85.05
2019-05-05T01:36:57.419Z,85.11
2019-05-05T01:37:38.405Z,85.09
2019-05-05T01:38:20.867Z,84.86
2019-05-05T01:39:27.006Z,84.77
2019-05-05T01:40:28.714Z,84.66
2019-05-05T01:41:10.231Z,84.82
2019-05-05T01:41:50.852Z,84.87
2019-05-05T01:42:27.039Z,84.79
2019-05-05T01:43:05.304Z,84.57
2019-05-05T01:43:42.124Z,84.68
2019-05-05T01:44:20.592Z,84.74
2019-05-05T01:44:57.242Z,84.72
2019-05-05T01:45:34.732Z,84.70
2019-05-05T01:46:14.195Z,84.70
2019-05-05T01:46:50.693Z,84.66
2019-05-05T01:47:26.728Z,84.66
2019-05-05T01:48:07.478Z,84.65
2019-05-05T01:48:44.509Z,84.66
2019-05-05T01:49:20.699Z,84.56
2019-05-05T01:49:56.927Z,84.57
2019-05-05T01:50:34.918Z,84.44
2019-05-05T01:51:11.590Z,84.24
2019-05-05T01:51:48.080Z,84.08
2019-05-05T01:52:25.458Z,84.21
2019-05-05T01:53:04.783Z,84.17
2019-05-05T01:53:41.356Z,84.23
2019-05-05T01:54:17.403Z,84.22
2019-05-05T01:54:54.763Z,84.20
2019-05-05T01:55:34.682Z,84.22
2019-05-05T01:56:11.542Z,84.25
2019-05-05T01:56:48.439Z,84.24
2019-05-05T01:57:27.053Z,84.14
2019-05-05T01:58:04.717Z,84.05
2019-05-05T01:58:44.440Z,84.01
2019-05-05T01:59:20.591Z,84.13
2019-05-05T01:59:56.851Z,84.23
2019-05-05T02:00:34.750Z,84.21
2019-05-05T02:01:10.824Z,84.14
2019-05-05T02:01:46.863Z,84.18
2019-05-05T02:02:25.097Z,84.17
2019-05-05T02:03:04.511Z,84.14
2019-05-05T02:03:44.352Z,84.13
2019-05-05T02:04:22.352Z,84.15
2019-05-05T02:04:58.511Z,84.13
2019-05-05T02:05:35.143Z,84.09
2019-05-05T02:06:11.828Z,84.12
2019-05-05T02:06:48.036Z,84.09
2019-05-05T02:07:25.107Z,84.07
2019-05-05T02:08:01.694Z,84.08
2019-05-05T02:08:38.927Z,84.13
2019-05-05T02:09:16.093Z,84.13
2019-05-05T02:09:55.188Z,84.11
2019-05-05T02:10:30.786Z,84.13
2019-05-05T02:11:07.260Z,84.15
2019-05-05T02:11:45.273Z,84.21
2019-05-05T02:12:24.661Z,84.29
2019-05-05T02:13:01.126Z,84.42
2019-05-05T02:13:37.272Z,84.33
2019-05-05T02:14:17.780Z,84.29
2019-05-05T02:14:55.143Z,84.30
2019-05-05T02:15:34.187Z,84.29
2019-05-05T02:16:10.078Z,84.16
2019-05-05T02:16:46.571Z,83.96
2019-05-05T02:17:26.600Z,83.74
2019-05-05T02:18:04.543Z,83.65
2019-05-05T02:18:42.078Z,83.62
2019-05-05T02:19:18.307Z,83.75
2019-05-05T02:19:55.048Z,83.97
2019-05-05T02:20:57.410Z,83.99
2019-05-05T02:21:38.463Z,83.99
2019-05-05T02:22:14.860Z,83.79
2019-05-05T02:22:51.598Z,83.72
2019-05-05T02:23:28.421Z,83.74
2019-05-05T02:24:05.520Z,83.67
2019-05-05T02:24:44.416Z,83.64
2019-05-05T02:25:25.121Z,83.54
2019-05-05T02:26:01.801Z,83.41
2019-05-05T02:26:38.297Z,83.33
2019-05-05T02:27:15.365Z,83.29
2019-05-05T02:27:51.338Z,83.26
2019-05-05T02:28:34.648Z,83.29
2019-05-05T02:29:21.515Z,83.33
2019-05-05T02:30:06.480Z,83.44
2019-05-05T02:30:49.947Z,83.62
2019-05-05T02:31:45.386Z,83.61
2019-05-05T02:32:38.095Z,83.58
2019-05-05T02:33:16.610Z,83.52
2019-05-05T02:33:56.887Z,83.33
2019-05-05T02:34:36.637Z,83.29
2019-05-05T02:35:16.450Z,83.33
2019-05-05T02:35:55.622Z,83.34
2019-05-05T02:36:39.964Z,83.40
2019-05-05T02:37:16.530Z,83.41
2019-05-05T02:37:55.545Z,83.51
2019-05-05T02:38:38.485Z,83.55
2019-05-05T02:39:16.013Z,83.56
2019-05-05T02:40:02.299Z,83.49
2019-05-05T02:40:31.634Z,83.34
2019-05-05T02:41:09.309Z,83.38
2019-05-05T02:41:46.565Z,83.40
2019-05-05T02:42:25.189Z,83.41
2019-05-05T02:43:01.437Z,83.42
2019-05-05T02:43:38.898Z,83.42
2019-05-05T02:44:18.226Z,83.44
2019-05-05T02:44:55.435Z,83.45
2019-05-05T02:46:35.957Z,83.51
2019-05-05T02:47:25.885Z,83.55
2019-05-05T02:48:15.224Z,83.67
2019-05-05T02:48:51.989Z,83.88
2019-05-05T02:49:27.929Z,83.81
2019-05-05T02:50:06.837Z,83.84
2019-05-05T02:51:00.137Z,83.97
2019-05-05T02:51:35.484Z,84.22
2019-05-05T02:52:14.917Z,84.40
2019-05-05T02:52:49.973Z,84.32
2019-05-05T02:53:34.130Z,84.23
2019-05-05T02:54:10.526Z,84.31
2019-05-05T02:54:47.348Z,84.29
2019-05-05T02:55:23.579Z,84.33
2019-05-05T02:56:04.291Z,84.21
2019-05-05T02:56:46.543Z,83.99
2019-05-05T02:57:29.525Z,83.81
2019-05-05T02:58:08.043Z,83.80
2019-05-05T02:58:45.010Z,83.66
2019-05-05T02:59:28.639Z,83.66
2019-05-05T03:00:27.376Z,83.60
2019-05-05T03:01:27.668Z,83.50
2019-05-05T03:02:25.023Z,83.12
2019-05-05T03:03:01.668Z,83.22
2019-05-05T03:03:40.035Z,82.76
2019-05-05T03:04:16.203Z,82.85
2019-05-05T03:04:53.641Z,82.89
2019-05-05T03:05:30.625Z,82.91
2019-05-05T03:06:07.468Z,82.79
2019-05-05T03:06:48.213Z,82.79
2019-05-05T03:07:26.586Z,82.85
2019-05-05T03:08:04.814Z,82.92
2019-05-05T03:08:43.955Z,82.92
2019-05-05T03:09:21.448Z,82.95
2019-05-05T03:10:01.032Z,82.97
2019-05-05T03:10:37.842Z,82.83
2019-05-05T03:11:16.288Z,82.77
2019-05-05T03:11:54.194Z,82.70
2019-05-05T03:12:34.489Z,82.60
2019-05-05T03:13:10.305Z,82.56
2019-05-05T03:13:51.201Z,82.59
2019-05-05T03:14:31.739Z,82.62
2019-05-05T03:15:09.498Z,82.63
2019-05-05T03:15:55.614Z,82.62
2019-05-05T03:16:36.317Z,82.59
2019-05-05T03:17:19.443Z,82.56
2019-05-05T03:17:55.490Z,82.54
2019-05-05T03:18:33.752Z,82.51
2019-05-05T03:19:14.112Z,82.48
2019-05-05T03:19:55.083Z,82.44
2019-05-05T03:20:31.823Z,82.41
2019-05-05T03:21:08.436Z,82.18
2019-05-05T03:21:46.322Z,82.22
2019-05-05T03:22:23.710Z,82.20
2019-05-05T03:23:04.211Z,82.19
2019-05-05T03:24:00.936Z,81.64
2019-05-05T03:24:37.711Z,81.85
2019-05-05T03:25:14.537Z,81.84
2019-05-05T03:25:54.447Z,81.78
2019-05-05T03:26:34.011Z,81.76
2019-05-05T03:27:11.236Z,81.75
2019-05-05T03:27:47.528Z,81.67
2019-05-05T03:28:28.639Z,81.67
2019-05-05T03:29:06.462Z,81.44
2019-05-05T03:29:44.387Z,81.41
2019-05-05T03:30:21.638Z,81.38
2019-05-05T03:31:04.918Z,81.09
2019-05-05T03:31:40.345Z,81.09
2019-05-05T03:32:17.010Z,80.80
2019-05-05T03:32:55.916Z,80.67
2019-05-05T03:33:35.170Z,80.47
2019-05-05T03:34:11.080Z,79.66
2019-05-05T03:34:49.831Z,79.66
2019-05-05T03:35:28.445Z,80.04
2019-05-05T03:36:04.583Z,80.04
2019-05-05T03:36:40.988Z,79.76
2019-05-05T03:37:18.025Z,79.49
2019-05-05T03:37:54.624Z,79.36
2019-05-05T03:38:31.373Z,78.59
2019-05-05T03:39:14.506Z,78.59
2019-05-05T03:39:55.979Z,78.75
2019-05-05T03:40:36.958Z,78.73
2019-05-05T03:41:34.434Z,78.73
2019-05-05T03:42:36.064Z,78.77
2019-05-05T03:43:23.672Z,78.84
2019-05-05T03:44:04.882Z,78.89
2019-05-05T03:44:58.759Z,79.03
2019-05-05T03:46:04.303Z,79.12
2019-05-05T03:46:40.883Z,79.50
2019-05-05T03:47:18.012Z,79.67
2019-05-05T03:47:54.282Z,79.85
2019-05-05T03:48:31.674Z,79.93
2019-05-05T03:49:11.257Z,80.17
2019-05-05T03:49:53.607Z,80.35
2019-05-05T03:50:29.860Z,80.52
2019-05-05T03:51:18.107Z,80.52
2019-05-05T03:51:44.088Z,80.41
2019-05-05T03:52:20.806Z,80.46
2019-05-05T03:52:59.617Z,80.52
2019-05-05T03:53:35.821Z,80.56
2019-05-05T03:54:11.967Z,80.77
2019-05-05T03:54:50.417Z,80.75
2019-05-05T03:55:31.403Z,80.80
2019-05-05T03:56:07.578Z,80.84
2019-05-05T03:56:44.309Z,81.58
2019-05-05T03:57:20.575Z,81.58
2019-05-05T03:57:58.674Z,81.44
2019-05-05T03:58:35.031Z,81.40
2019-05-05T03:59:11.230Z,81.45
2019-05-05T03:59:49.661Z,81.46
2019-05-05T04:00:50.227Z,81.43
2019-05-05T04:01:54.589Z,81.39
2019-05-05T04:02:58.272Z,81.58
2019-05-05T04:03:34.405Z,81.55
2019-05-05T04:04:27.176Z,81.58
2019-05-05T04:05:23.536Z,81.55
2019-05-05T04:06:04.386Z,81.44
2019-05-05T04:06:44.564Z,80.92
2019-05-05T04:07:20.855Z,80.92
2019-05-05T04:07:57.323Z,81.32
2019-05-05T04:08:33.891Z,81.19
2019-05-05T04:09:10.003Z,81.07
2019-05-05T04:09:46.167Z,80.73
2019-05-05T04:10:24.393Z,80.73
2019-05-05T04:11:05.047Z,80.73
2019-05-05T04:11:41.679Z,80.68
2019-05-05T04:12:18.136Z,80.60
2019-05-05T04:12:58.162Z,80.57
2019-05-05T04:13:34.594Z,80.46
2019-05-05T04:14:14.219Z,80.34
2019-05-05T04:14:50.639Z,80.23
2019-05-05T04:15:26.809Z,80.00
2019-05-05T04:16:26.423Z,80.00
2019-05-05T04:17:29.035Z,80.00
2019-05-05T04:18:24.057Z,79.61
2019-05-05T04:19:03.670Z,79.89
2019-05-05T04:19:43.516Z,79.72
2019-05-05T04:20:45.068Z,79.75
2019-05-05T04:21:39.694Z,79.75
2019-05-05T04:22:15.718Z,80.12
2019-05-05T04:22:54.080Z,79.75
2019-05-05T04:23:33.685Z,79.75
2019-05-05T04:24:10.590Z,80.15
2019-05-05T04:24:49.038Z,80.13
2019-05-05T04:25:31.742Z,80.00
2019-05-05T04:26:09.958Z,79.67
2019-05-05T04:26:48.948Z,79.39
2019-05-05T04:27:25.316Z,79.39
2019-05-05T04:28:01.398Z,79.40
2019-05-05T04:28:38.347Z,79.65
2019-05-05T04:29:14.292Z,79.65
2019-05-05T04:29:55.551Z,78.81
2019-05-05T04:30:33.867Z,78.79
2019-05-05T04:31:10.119Z,78.79
2019-05-05T04:31:46.112Z,78.33
2019-05-05T04:32:24.353Z,78.45
2019-05-05T04:33:00.304Z,78.45
2019-05-05T04:33:46.279Z,78.33
2019-05-05T04:34:43.864Z,78.33
2019-05-05T04:35:34.051Z,77.84
2019-05-05T04:36:10.397Z,77.36
2019-05-05T04:36:46.433Z,77.36
2019-05-05T04:37:23.950Z,77.47
2019-05-05T04:38:00.233Z,76.08
2019-05-05T04:38:37.526Z,75.84
2019-05-05T04:39:14.399Z,75.84
2019-05-05T04:39:50.570Z,77.01
2019-05-05T04:40:26.590Z,77.01
2019-05-05T04:41:03.527Z,76.90
2019-05-05T04:41:44.032Z,76.84
2019-05-05T04:42:24.640Z,76.68
2019-05-05T04:43:17.986Z,76.68
2019-05-05T04:43:55.654Z,77.09
2019-05-05T04:44:34.712Z,77.31
2019-05-05T04:45:10.821Z,77.69
2019-05-05T04:45:51.080Z,77.69
2019-05-05T04:46:28.267Z,78.08
2019-05-05T04:47:11.514Z,78.32
2019-05-05T04:47:54.181Z,78.32
2019-05-05T04:48:37.023Z,77.85
2019-05-05T04:49:26.629Z,77.29
2019-05-05T04:50:18.317Z,77.29
2019-05-05T04:51:15.139Z,76.49
2019-05-05T04:51:53.791Z,75.54
2019-05-05T04:52:30.231Z,75.54
2019-05-05T04:53:08.625Z,75.73
2019-05-05T04:54:03.725Z,75.66
2019-05-05T04:54:55.477Z,75.59
2019-05-05T04:55:31.233Z,75.58
2019-05-05T04:56:11.540Z,75.58
2019-05-05T04:56:48.927Z,74.35
2019-05-05T04:57:29.584Z,74.35
2019-05-05T04:58:05.958Z,75.22
2019-05-05T04:58:43.951Z,75.32
2019-05-05T04:59:19.823Z,75.85
2019-05-05T05:00:04.983Z,75.85
2019-05-05T05:00:43.998Z,74.92
2019-05-05T05:01:20.018Z,74.84
2019-05-05T05:02:07.430Z,74.77
2019-05-05T05:02:59.445Z,74.33
2019-05-05T05:04:06.371Z,74.33
2019-05-05T05:04:55.227Z,74.85
2019-05-05T05:05:50.976Z,74.48
2019-05-05T05:06:36.819Z,74.48
2019-05-05T05:07:13.663Z,74.47
2019-05-05T05:07:57.819Z,74.64
2019-05-05T05:08:33.824Z,74.42
2019-05-05T05:09:10.198Z,74.14
2019-05-05T05:09:46.355Z,73.10
2019-05-05T05:10:24.049Z,73.10
2019-05-05T05:11:00.317Z,73.74
2019-05-05T05:11:41.378Z,73.61
2019-05-05T05:12:20.006Z,73.61
2019-05-05T05:12:55.990Z,73.59
2019-05-05T05:13:32.016Z,73.59
2019-05-05T05:14:08.118Z,73.19
2019-05-05T05:14:44.347Z,72.59
2019-05-05T05:15:20.250Z,72.03
2019-05-05T05:15:57.675Z,71.36
2019-05-05T05:16:37.495Z,70.81
2019-05-05T05:17:19.943Z,70.57
2019-05-05T05:18:04.827Z,69.46
2019-05-05T05:18:41.090Z,69.13
2019-05-05T05:19:17.331Z,68.83
2019-05-05T05:19:54.243Z,68.55
2019-05-05T05:20:33.846Z,68.72
2019-05-05T05:21:14.541Z,68.26
2019-05-05T05:21:59.375Z,67.59
2019-05-05T05:22:28.407Z,66.84
2019-05-05T05:23:07.101Z,66.43
2019-05-05T05:23:44.654Z,66.31
2019-05-05T05:24:21.261Z,66.12
2019-05-05T05:24:57.982Z,66.91
2019-05-05T05:25:34.771Z,66.77
2019-05-05T05:26:11.248Z,66.06
2019-05-05T05:26:48.207Z,65.99
2019-05-05T05:27:25.398Z,66.16
2019-05-05T05:28:03.983Z,66.24
2019-05-05T05:28:40.533Z,66.46
2019-05-05T05:29:19.882Z,66.78
2019-05-05T05:29:57.888Z,66.86
2019-05-05T05:30:34.693Z,66.90
2019-05-05T05:31:13.951Z,67.04
2019-05-05T05:31:50.359Z,67.37
2019-05-05T05:32:28.408Z,67.16
2019-05-05T05:33:06.420Z,67.17
2019-05-05T05:33:44.240Z,67.12
2019-05-05T05:34:20.772Z,67.25
2019-05-05T05:34:57.727Z,67.33
2019-05-05T05:35:34.002Z,67.34
2019-05-05T05:36:11.928Z,67.07
2019-05-05T05:36:48.021Z,67.07
2019-05-05T05:37:24.197Z,66.94
2019-05-05T05:38:01.349Z,66.91
2019-05-05T05:38:38.514Z,66.94
2019-05-05T05:39:44.585Z,67.10
2019-05-05T05:40:34.279Z,66.83
2019-05-05T05:41:14.001Z,66.09
2019-05-05T05:41:50.307Z,65.78
2019-05-05T05:42:26.337Z,65.90
2019-05-05T05:43:04.690Z,65.06
2019-05-05T05:43:57.835Z,64.90
2019-05-05T05:44:59.027Z,64.85
2019-05-05T05:45:50.408Z,64.80
2019-05-05T05:46:43.941Z,64.68
2019-05-05T05:47:26.172Z,64.75
2019-05-05T05:48:16.581Z,64.22
2019-05-05T05:49:20.898Z,63.57
2019-05-05T05:50:16.890Z,63.43
2019-05-05T05:51:00.430Z,64.05
2019-05-05T05:51:44.603Z,64.42
2019-05-05T05:52:21.451Z,64.18
2019-05-05T05:52:57.931Z,64.23
2019-05-05T05:53:34.949Z,64.40
2019-05-05T05:54:11.779Z,65.09
2019-05-05T05:54:47.852Z,65.13
2019-05-05T05:55:24.493Z,65.22
2019-05-05T05:56:04.335Z,65.37
2019-05-05T05:56:41.165Z,65.27
2019-05-05T05:57:17.225Z,65.43
2019-05-05T05:57:54.308Z,65.51
2019-05-05T05:58:31.210Z,65.50
2019-05-05T05:59:07.265Z,65.44
2019-05-05T05:59:44.527Z,65.42
2019-05-05T06:00:20.597Z,65.36
2019-05-05T06:00:58.157Z,65.43
2019-05-05T06:01:34.712Z,65.51
2019-05-05T06:02:13.467Z,65.08
2019-05-05T06:02:49.075Z,65.13
2019-05-05T06:03:25.458Z,64.54
2019-05-05T06:04:03.951Z,64.26
2019-05-05T06:04:40.757Z,64.35
2019-05-05T06:05:17.409Z,64.67
2019-05-05T06:05:54.112Z,64.78
2019-05-05T06:06:31.023Z,64.86
2019-05-05T06:07:07.017Z,64.95
2019-05-05T06:07:44.343Z,64.55
2019-05-05T06:08:21.310Z,64.64
2019-05-05T06:08:58.068Z,64.61
2019-05-05T06:09:34.596Z,64.71
2019-05-05T06:10:22.176Z,64.82
2019-05-05T06:10:49.831Z,64.89
2019-05-05T06:11:26.205Z,64.97
2019-05-05T06:12:03.569Z,64.54
2019-05-05T06:12:41.324Z,64.48
2019-05-05T06:13:17.417Z,64.37
2019-05-05T06:13:54.489Z,64.29
2019-05-05T06:14:33.853Z,64.09
2019-05-05T06:15:10.192Z,63.87
2019-05-05T06:15:46.727Z,63.87
2019-05-05T06:16:23.584Z,63.67
2019-05-05T06:17:00.020Z,63.43
2019-05-05T06:17:36.406Z,63.33
2019-05-05T06:18:13.772Z,63.01
2019-05-05T06:19:03.494Z,63.01
2019-05-05T06:19:39.203Z,63.28
2019-05-05T06:20:15.769Z,63.17
2019-05-05T06:20:53.752Z,62.93
2019-05-05T06:21:30.410Z,62.52
2019-05-05T06:22:06.375Z,62.45
2019-05-05T06:22:44.685Z,62.26
2019-05-05T06:23:24.213Z,61.98
2019-05-05T06:24:00.365Z,62.04
2019-05-05T06:24:36.577Z,61.87
2019-05-05T06:25:15.964Z,61.89
2019-05-05T06:25:57.673Z,62.15
2019-05-05T06:26:36.643Z,62.40
2019-05-05T06:27:14.323Z,62.54
2019-05-05T06:27:57.306Z,62.85
2019-05-05T06:28:36.860Z,63.09
2019-05-05T06:29:14.584Z,63.45
2019-05-05T06:29:50.890Z,63.62
2019-05-05T06:30:26.973Z,63.27
2019-05-05T06:31:04.991Z,63.08
2019-05-05T06:31:44.623Z,63.07
2019-05-05T06:32:19.783Z,62.98
2019-05-05T06:32:55.883Z,62.60
2019-05-05T06:33:31.763Z,62.76
2019-05-05T06:34:08.070Z,62.84
2019-05-05T06:34:46.303Z,62.80
2019-05-05T06:35:24.316Z,62.80
2019-05-05T06:36:00.236Z,62.81
2019-05-05T06:36:36.985Z,62.73
2019-05-05T06:37:14.517Z,62.53
2019-05-05T06:37:54.777Z,62.60
2019-05-05T06:38:31.468Z,62.66
2019-05-05T06:39:08.858Z,62.68
2019-05-05T06:39:45.496Z,62.65
2019-05-05T06:40:23.363Z,62.46
2019-05-05T06:41:10.509Z,62.47
2019-05-05T06:41:53.949Z,62.52
2019-05-05T06:42:43.419Z,62.29
2019-05-05T06:43:38.907Z,62.21
2019-05-05T06:44:34.544Z,62.07
2019-05-05T06:45:29.652Z,61.53
2019-05-05T06:46:06.750Z,60.67
2019-05-05T06:47:01.036Z,59.77
2019-05-05T06:47:44.453Z,59.25
2019-05-05T06:48:21.020Z,58.58
2019-05-05T06:48:57.303Z,58.13
2019-05-05T06:49:34.558Z,58.48
2019-05-05T06:50:10.811Z,58.63
2019-05-05T06:50:47.429Z,58.60
2019-05-05T06:51:24.565Z,58.03
2019-05-05T06:52:00.696Z,57.88
2019-05-05T06:52:44.125Z,57.89
2019-05-05T06:53:16.147Z,58.15
2019-05-05T06:53:53.862Z,58.54
2019-05-05T06:54:29.812Z,58.56
2019-05-05T06:55:06.578Z,58.08
2019-05-05T06:55:54.267Z,57.89
2019-05-05T06:56:30.221Z,57.99
2019-05-05T06:57:06.396Z,58.29
2019-05-05T06:57:44.307Z,58.40
2019-05-05T06:58:21.017Z,58.58
2019-05-05T06:58:58.425Z,58.75
2019-05-05T06:59:35.330Z,58.48
2019-05-05T07:00:13.851Z,58.48
2019-05-05T07:00:50.145Z,58.26
2019-05-05T07:01:26.616Z,57.85
2019-05-05T07:02:04.274Z,56.83
2019-05-05T07:02:40.239Z,56.79
2019-05-05T07:03:16.970Z,56.64
2019-05-05T07:03:54.158Z,56.42
2019-05-05T07:04:30.514Z,56.73
2019-05-05T07:05:07.113Z,56.92
2019-05-05T07:05:43.831Z,57.29
2019-05-05T07:06:20.319Z,57.50
2019-05-05T07:06:57.270Z,57.76
2019-05-05T07:07:34.398Z,57.95
2019-05-05T07:08:10.924Z,58.32
2019-05-05T07:08:47.446Z,58.62
2019-05-05T07:09:24.487Z,58.90
2019-05-05T07:10:00.660Z,58.76
2019-05-05T07:10:37.553Z,58.74
2019-05-05T07:11:14.584Z,58.41
2019-05-05T07:11:50.946Z,58.22
2019-05-05T07:12:27.397Z,57.93
2019-05-05T07:13:04.991Z,57.71
2019-05-05T07:13:41.251Z,57.79
2019-05-05T07:14:17.274Z,58.25
2019-05-05T07:14:53.899Z,58.11
2019-05-05T07:15:30.553Z,58.23
2019-05-05T07:16:12.235Z,58.34
2019-05-05T07:16:48.802Z,58.37
2019-05-05T07:17:25.466Z,58.46
2019-05-05T07:18:03.597Z,58.23
2019-05-05T07:18:39.646Z,58.10
2019-05-05T07:19:15.709Z,57.72
2019-05-05T07:19:54.201Z,57.70
2019-05-05T07:20:31.169Z,57.86
2019-05-05T07:21:07.264Z,57.74
2019-05-05T07:21:43.707Z,57.27
2019-05-05T07:22:20.776Z,56.90
2019-05-05T07:23:02.058Z,56.84
2019-05-05T07:23:35.802Z,56.84
2019-05-05T07:24:11.809Z,56.97
2019-05-05T07:24:48.408Z,57.11
2019-05-05T07:25:24.503Z,57.28
2019-05-05T07:26:00.905Z,57.40
2019-05-05T07:26:37.544Z,57.41
2019-05-05T07:27:13.981Z,57.76
2019-05-05T07:27:50.887Z,57.77
2019-05-05T07:28:28.184Z,57.73
2019-05-05T07:29:04.640Z,57.69
2019-05-05T07:29:43.506Z,57.65
2019-05-05T07:30:19.124Z,57.56
2019-05-05T07:30:55.145Z,57.28
2019-05-05T07:31:34.157Z,57.24
2019-05-05T07:32:19.628Z,56.88
2019-05-05T07:32:55.975Z,57.09
2019-05-05T07:33:34.367Z,56.91
2019-05-05T07:34:16.014Z,57.31
2019-05-05T07:35:14.997Z,57.81
2019-05-05T07:36:19.357Z,58.37
2019-05-05T07:36:58.011Z,58.54
2019-05-05T07:37:36.151Z,59.20
2019-05-05T07:38:13.812Z,59.61
2019-05-05T07:38:51.554Z,60.07
2019-05-05T07:39:27.820Z,59.94
2019-05-05T07:40:04.600Z,60.14
2019-05-05T07:40:41.363Z,60.16
2019-05-05T07:41:17.563Z,60.24
2019-05-05T07:41:54.310Z,60.57
2019-05-05T07:42:30.564Z,60.74
2019-05-05T07:43:07.987Z,61.03
2019-05-05T07:43:44.540Z,61.03
2019-05-05T07:44:26.671Z,60.82
2019-05-05T07:45:00.079Z,60.69
2019-05-05T07:45:36.957Z,60.64
2019-05-05T07:46:13.705Z,60.41
2019-05-05T07:46:50.776Z,60.44
2019-05-05T07:47:26.953Z,60.03
2019-05-05T07:48:04.939Z,59.59
2019-05-05T07:48:41.680Z,59.60
2019-05-05T07:49:19.704Z,59.65
2019-05-05T07:49:55.821Z,59.69
2019-05-05T07:50:59.779Z,59.73
2019-05-05T07:51:30.586Z,59.58
2019-05-05T07:52:06.857Z,59.38
2019-05-05T07:52:43.912Z,59.59
2019-05-05T07:53:20.383Z,59.87
2019-05-05T07:53:56.649Z,59.67
2019-05-05T07:54:34.207Z,60.08
2019-05-05T07:55:14.231Z,60.27
2019-05-05T07:55:49.887Z,60.30
2019-05-05T07:56:26.063Z,60.36
2019-05-05T07:57:04.182Z,60.59
2019-05-05T07:57:40.377Z,60.92
2019-05-05T07:58:16.418Z,61.63
2019-05-05T07:58:54.385Z,61.60
2019-05-05T07:59:30.413Z,61.33
2019-05-05T08:00:07.532Z,61.35
2019-05-05T08:00:44.033Z,61.50
2019-05-05T08:01:20.750Z,61.53
2019-05-05T08:01:57.348Z,61.79
2019-05-05T08:02:34.010Z,61.90
2019-05-05T08:03:14.344Z,62.14
2019-05-05T08:03:53.692Z,62.25
2019-05-05T08:04:29.973Z,62.41
2019-05-05T08:05:06.255Z,62.49
2019-05-05T08:05:44.222Z,62.49
2019-05-05T08:06:23.726Z,62.57
2019-05-05T08:07:00.630Z,62.64
2019-05-05T08:07:37.197Z,62.82
2019-05-05T08:08:14.090Z,62.75
2019-05-05T08:08:51.041Z,62.77
2019-05-05T08:09:27.172Z,62.88
2019-05-05T08:10:04.819Z,63.01
2019-05-05T08:10:40.850Z,62.91
2019-05-05T08:11:17.605Z,62.58
2019-05-05T08:11:55.027Z,62.47
2019-05-05T08:12:31.213Z,62.08
2019-05-05T08:13:10.111Z,61.74
2019-05-05T08:13:46.409Z,61.54
2019-05-05T08:14:24.581Z,61.61
2019-05-05T08:15:00.919Z,61.99
2019-05-05T08:15:37.159Z,61.71
2019-05-05T08:16:47.546Z,61.34
2019-05-05T08:17:34.010Z,61.12
2019-05-05T08:18:27.237Z,60.50
2019-05-05T08:19:24.324Z,59.86
2019-05-05T08:20:05.663Z,58.55
2019-05-05T08:20:46.145Z,58.12
2019-05-05T08:21:23.974Z,58.19
2019-05-05T08:22:03.536Z,58.00
2019-05-05T08:22:39.283Z,57.88
2019-05-05T08:23:35.674Z,57.62
2019-05-05T08:24:25.186Z,57.82
2019-05-05T08:25:14.502Z,58.46
2019-05-05T08:26:29.691Z,58.88
2019-05-05T08:27:20.880Z,59.08
2019-05-05T08:28:15.362Z,58.99
2019-05-05T08:29:00.110Z,59.29
2019-05-05T08:29:40.066Z,59.65
2019-05-05T08:30:44.724Z,59.88
2019-05-05T08:31:45.537Z,60.01
2019-05-05T08:32:35.707Z,60.15
2019-05-05T08:33:16.566Z,60.25
2019-05-05T08:33:54.690Z,60.05
2019-05-05T08:34:33.943Z,59.97
2019-05-05T08:35:09.972Z,59.76